BZR weather

Béziers-Vias Airport
Béziers/Vias, Occitanie, France

Public forecast

Using degrees Celsius for public forecast. Weather courtesy of forecast.io.

Current aviation weather report (METAR) for Béziers-Vias Airport

Retrieved 2020/02/28 21:00 UTC (35 minutes ago):

LFMU 282100Z AUTO 06003KT 9999 FEW011 BKN230 10/08 Q1018

Aviation forecast (TAF) for Béziers-Vias Airport

Retrieved 2020/02/28 19:45 UTC (2 hours ago):

TAF LFMU 281942Z 2819/2915 CNL